Time;durP1;ratioP1;P1;durP2;ratioP2;P2;SDS_P1;SDS_P2;PMS_P1;PMS_P2;Temp;Humidity;BMP_temperature;BMP_pressure;BME280_temperature;BME280_humidity;BME280_pressure;Samples;Min_cycle;Max_cycle;Signal;HPM_P1;HPM_P2
2021/07/25 06:00:08;;;;;;;13.83;11.05;;;;;;;22.42;62.52;100178.75;1784045;75;27086;31
2021/07/25 06:02:50;;;;;;;16.27;11.40;;;;;;;22.60;61.87;100176.61;1814526;78;26010;-68
2021/07/25 06:05:17;;;;;;;40.05;37.05;;;;;;;22.78;61.80;100173.83;1815235;79;25620;-67
2021/07/25 06:07:43;;;;;;;14.50;11.90;;;;;;;22.99;61.35;100185.45;1815144;79;27548;-67
2021/07/25 06:10:12;;;;;;;16.35;12.30;;;;;;;23.16;61.10;100186.03;1813659;79;25669;-67
2021/07/25 06:12:39;;;;;;;19.12;12.95;;;;;;;23.35;60.50;100188.16;1813974;78;25727;-67
2021/07/25 06:15:07;;;;;;;19.07;12.47;;;;;;;23.45;59.91;100187.33;1814551;79;25715;-67
2021/07/25 06:17:33;;;;;;;14.20;12.33;;;;;;;23.55;59.61;100183.75;1814863;78;25727;-67
2021/07/25 06:19:59;;;;;;;19.90;12.30;;;;;;;23.66;59.46;100185.84;1816855;78;27447;-67
2021/07/25 06:22:26;;;;;;;16.20;11.30;;;;;;;23.79;59.40;100181.28;1814615;79;26093;-67
2021/07/25 06:24:53;;;;;;;12.65;11.28;;;;;;;23.95;59.01;100182.20;1789455;79;25853;-67
2021/07/25 06:27:19;;;;;;;16.60;12.30;;;;;;;24.11;58.86;100183.89;1815100;79;25688;-67
2021/07/25 06:29:45;;;;;;;14.03;12.20;;;;;;;24.20;57.76;100179.30;1814931;79;25735;-67
2021/07/25 06:32:11;;;;;;;16.35;11.70;;;;;;;24.29;57.72;100181.00;1789988;79;27362;-67
2021/07/25 06:34:37;;;;;;;16.30;12.30;;;;;;;24.40;57.37;100185.86;1809717;79;26359;-68
2021/07/25 06:37:05;;;;;;;12.80;11.50;;;;;;;24.52;57.02;100198.98;1809918;79;26000;-68
2021/07/25 06:39:32;;;;;;;16.82;11.57;;;;;;;24.61;56.64;100188.30;1810050;79;25718;-67
2021/07/25 06:41:58;;;;;;;15.20;12.18;;;;;;;24.67;56.39;100186.68;1809977;79;25714;-68
2021/07/25 06:44:25;;;;;;;76.67;71.77;;;;;;;24.80;55.96;100188.33;1809907;79;27483;-68
2021/07/25 06:46:52;;;;;;;77.30;72.20;;;;;;;24.89;55.46;100180.36;1809899;79;25791;-68
2021/07/25 06:49:18;;;;;;;78.33;73.22;;;;;;;25.02;55.38;100180.61;1809966;79;25717;-68
2021/07/25 06:51:44;;;;;;;76.37;71.45;;;;;;;25.20;55.38;100176.28;1809872;79;25606;-68
2021/07/25 06:54:11;;;;;;;78.70;72.90;;;;;;;25.41;54.89;100182.81;1809969;79;25713;-68
2021/07/25 06:56:37;;;;;;;77.72;72.53;;;;;;;25.55;53.87;100172.94;1810009;79;27453;-68
2021/07/25 06:59:03;;;;;;;76.70;71.62;;;;;;;25.62;53.64;100180.38;1809816;79;26113;-68
2021/07/25 07:01:30;;;;;;;76.65;71.65;;;;;;;25.70;53.38;100176.31;1809883;76;25771;-68
2021/07/25 07:03:56;;;;;;;74.53;69.92;;;;;;;25.75;53.13;100179.23;1809992;79;25759;-68
2021/07/25 07:06:23;;;;;;;25.27;22.93;;;;;;;25.80;52.81;100172.62;1809919;79;25722;-68
2021/07/25 07:08:49;;;;;;;14.68;10.78;;;;;;;25.98;53.04;100184.86;1809932;79;27480;-68
2021/07/25 07:11:16;;;;;;;17.57;11.90;;;;;;;26.06;52.75;100183.55;1809870;79;25773;-68
2021/07/25 07:13:43;;;;;;;16.35;11.38;;;;;;;26.23;53.01;100185.11;1809923;79;25715;-68
2021/07/25 07:16:09;;;;;;;12.93;11.18;;;;;;;26.46;52.54;100177.44;1810110;79;26399;-68
2021/07/25 07:18:36;;;;;;;16.17;11.95;;;;;;;26.58;52.11;100178.80;1810148;79;25744;-75
2021/07/25 07:21:03;;;;;;;16.15;11.22;;;;;;;26.79;52.68;100177.70;1810004;79;28096;-75
2021/07/25 07:23:29;;;;;;;15.25;10.98;;;;;;;27.06;52.60;100178.22;1810042;79;26345;-75
2021/07/25 07:25:56;;;;;;;14.53;10.85;;;;;;;27.37;52.03;100181.61;1810067;79;25698;-75
2021/07/25 07:28:22;;;;;;;12.45;10.40;;;;;;;27.50;50.57;100175.59;1810075;79;25748;-75
2021/07/25 07:30:49;;;;;;;15.03;10.30;;;;;;;27.52;50.07;100178.72;1810153;79;25693;-74
2021/07/25 07:33:20;;;;;;;14.20;10.40;;;;;;;27.60;50.00;100176.59;1810094;79;27449;-75
2021/07/25 07:35:47;;;;;;;11.28;9.73;;;;;;;27.75;49.84;100171.48;1809368;79;25779;-74
2021/07/25 07:38:15;;;;;;;11.03;9.90;;;;;;;28.00;49.60;100175.75;1810153;79;25672;-74
2021/07/25 07:40:45;;;;;;;13.90;10.68;;;;;;;28.38;49.55;100187.77;1810289;79;26063;-74
2021/07/25 07:43:14;;;;;;;12.55;10.10;;;;;;;28.38;49.55;100187.77;1810126;79;25874;-74
2021/07/25 07:45:42;;;;;;;14.80;12.03;;;;;;;28.56;48.08;100188.77;1810144;79;28149;-74
2021/07/25 07:48:09;;;;;;;15.18;10.88;;;;;;;28.68;48.22;100177.70;1810008;79;25849;-73
2021/07/25 07:50:36;;;;;;;12.35;10.38;;;;;;;28.84;47.10;100190.03;1810081;79;25640;-73
2021/07/25 07:53:04;;;;;;;14.47;11.10;;;;;;;28.82;47.12;100189.69;1810113;79;25760;-74
2021/07/25 07:55:30;;;;;;;13.55;10.13;;;;;;;28.86;46.29;100188.39;1782791;79;25731;-73
2021/07/25 07:57:56;;;;;;;12.50;10.20;;;;;;;28.87;47.37;100183.59;1810181;79;27460;-74
2021/07/25 08:00:23;;;;;;;13.48;10.38;;;;;;;29.14;47.06;100184.66;1810111;79;25762;-74
2021/07/25 08:02:49;;;;;;;15.00;9.93;;;;;;;29.25;46.40;100181.60;1810624;77;25620;-74
2021/07/25 08:05:20;;;;;;;13.13;10.63;;;;;;;29.34;46.33;100177.58;1810509;79;25648;-74
2021/07/25 08:07:48;;;;;;;15.32;10.60;;;;;;;29.44;45.71;100179.89;1810462;79;25795;-74
2021/07/25 08:10:15;;;;;;;13.55;9.45;;;;;;;29.51;45.72;100180.27;1810382;79;27433;-74
2021/07/25 08:12:45;;;;;;;14.23;9.65;;;;;;;29.61;45.74;100174.41;1810245;79;25818;-74
2021/07/25 08:15:12;;;;;;;12.47;9.83;;;;;;;29.83;45.61;100173.81;1810474;78;25751;-74
2021/07/25 08:17:39;;;;;;;11.75;9.63;;;;;;;29.76;44.07;100176.76;1810349;78;25723;-74
2021/07/25 08:20:07;;;;;;;14.47;10.10;;;;;;;29.72;44.25;100180.28;1810379;78;25727;-74
2021/07/25 08:22:34;;;;;;;9.30;8.33;;;;;;;29.75;44.27;100176.61;1783001;79;27506;-74
2021/07/25 08:25:00;;;;;;;10.50;8.98;;;;;;;29.88;44.96;100172.45;1810150;79;25664;-74
2021/07/25 08:27:27;;;;;;;14.13;9.50;;;;;;;30.16;44.40;100180.55;1810297;79;25676;-74
2021/07/25 08:29:53;;;;;;;13.85;9.50;;;;;;;30.28;43.82;100166.43;1810289;79;25732;-74
2021/07/25 08:32:19;;;;;;;12.73;9.15;;;;;;;30.36;43.21;100171.98;1810321;79;25639;-73
2021/07/25 08:34:46;;;;;;;10.65;9.55;;;;;;;30.40;43.85;100165.66;1810267;79;27474;-74
2021/07/25 08:37:15;;;;;;;10.98;9.15;;;;;;;30.58;43.17;100173.45;1810227;78;25799;-73
2021/07/25 08:39:42;;;;;;;11.63;9.80;;;;;;;30.59;43.04;100162.42;1810348;79;25748;-73
2021/07/25 08:42:11;;;;;;;12.30;9.33;;;;;;;30.80;42.14;100177.68;1810241;79;25648;-73
2021/07/25 08:44:52;;;;;;;11.68;9.10;;;;;;;30.98;42.85;100169.32;1757292;79;25710;-73
2021/07/25 08:47:23;;;;;;;10.13;8.63;;;;;;;31.21;42.52;100166.09;1810367;79;27452;-74
2021/07/25 08:49:57;;;;;;;11.73;9.33;;;;;;;31.54;42.21;100171.91;1810029;78;25688;-73
2021/07/25 08:52:27;;;;;;;9.90;8.85;;;;;;;31.83;41.51;100166.77;1809563;79;25619;-73
2021/07/25 08:54:56;;;;;;;12.70;9.00;;;;;;;31.94;41.56;100166.36;1810368;79;26104;-74
2021/07/25 08:57:28;;;;;;;12.95;11.28;;;;;;;32.10;41.12;100166.75;1810392;79;25770;-74
2021/07/25 08:59:56;;;;;;;11.53;10.10;;;;;;;32.31;41.08;100169.29;1810349;79;27442;-74
2021/07/25 09:02:29;;;;;;;10.10;9.08;;;;;;;32.55;40.26;100173.69;1776435;79;25682;-73
2021/07/25 09:04:57;;;;;;;12.98;8.70;;;;;;;32.67;39.84;100172.02;1797056;79;25627;-74
2021/07/25 09:07:28;;;;;;;13.50;8.73;;;;;;;32.79;39.99;100169.55;1797115;79;25695;-73
2021/07/25 09:10:09;;;;;;;10.45;8.83;;;;;;;32.79;38.73;100175.15;1797030;79;25759;-73
2021/07/25 09:12:55;;;;;;;9.95;8.48;;;;;;;32.69;38.89;100175.75;1796997;79;27468;-73
2021/07/25 09:15:28;;;;;;;11.33;8.70;;;;;;;32.64;38.93;100162.37;1796880;79;25736;-73
2021/07/25 09:17:58;;;;;;;9.13;8.23;;;;;;;32.87;39.21;100170.17;1796994;79;25672;-73
2021/07/25 09:20:35;;;;;;;9.73;8.30;;;;;;;33.09;38.88;100171.41;1796831;79;25783;-73
2021/07/25 09:23:13;;;;;;;12.93;8.85;;;;;;;33.24;38.24;100167.38;1796977;79;25739;-74
2021/07/25 09:25:51;;;;;;;12.58;8.75;;;;;;;33.39;38.17;100162.52;1797210;78;27495;-74
2021/07/25 09:28:30;;;;;;;9.18;8.08;;;;;;;33.49;36.79;100161.25;1796956;79;25659;-74
2021/07/25 09:31:11;;;;;;;9.45;8.33;;;;;;;33.35;36.86;100155.67;1797085;79;25743;-74
2021/07/25 09:33:45;;;;;;;10.43;7.92;;;;;;;33.24;36.37;100162.41;1796999;79;26307;-73
2021/07/25 09:36:17;;;;;;;35.00;32.38;;;;;;;33.12;36.86;100155.07;1796955;79;25720;-73
2021/07/25 09:38:46;;;;;;;10.48;8.05;;;;;;;33.33;37.58;100156.01;1772280;79;27571;-73
2021/07/25 09:41:21;;;;;;;11.43;8.08;;;;;;;33.67;35.92;100158.42;1796827;79;25683;-73
2021/07/25 09:44:08;;;;;;;8.40;7.67;;;;;;;33.64;35.16;100154.36;1797017;79;25694;-73
2021/07/25 09:46:48;;;;;;;8.80;7.60;;;;;;;33.53;36.08;100155.47;1796818;79;25721;-73
2021/07/25 09:49:18;;;;;;;9.88;8.33;;;;;;;33.71;35.96;100156.08;1796925;78;25707;-73
2021/07/25 09:51:45;;;;;;;9.40;8.40;;;;;;;33.86;35.56;100161.16;1796953;79;28029;-73
2021/07/25 09:54:12;;;;;;;9.85;7.60;;;;;;;33.97;35.56;100153.62;1796905;79;25886;-73
2021/07/25 09:56:38;;;;;;;63.40;59.73;;;;;;;33.98;34.18;100154.55;1796954;78;25625;-73
2021/07/25 09:59:24;;;;;;;65.08;61.23;;;;;;;33.91;35.00;100154.13;1796875;79;25908;-73
2021/07/25 10:01:50;;;;;;;26.10;24.25;;;;;;;34.03;34.15;100151.09;1800309;78;25889;-73
2021/07/25 10:04:23;;;;;;;10.65;7.60;;;;;;;34.04;32.14;100156.87;1821511;78;27446;-73
2021/07/25 10:06:54;;;;;;;9.40;7.62;;;;;;;33.75;33.02;100156.07;1821431;78;25873;-73
2021/07/25 10:09:22;;;;;;;9.10;7.78;;;;;;;33.62;32.22;100148.45;1821610;78;25636;-73
2021/07/25 10:12:01;;;;;;;13.58;7.60;;;;;;;33.36;32.67;100165.65;1821456;78;25693;-74
2021/07/25 10:14:31;;;;;;;11.53;8.03;;;;;;;33.23;33.33;100156.64;1821689;78;25711;-73
2021/07/25 10:17:02;;;;;;;12.30;8.40;;;;;;;33.32;33.52;100146.80;1821430;78;27610;-73
2021/07/25 10:19:41;;;;;;;12.28;8.20;;;;;;;33.40;33.10;100152.23;1821405;78;25841;-73
2021/07/25 10:22:14;;;;;;;12.20;8.05;;;;;;;33.49;33.09;100149.43;1821467;78;25908;-73
2021/07/25 10:24:43;;;;;;;12.43;8.75;;;;;;;33.55;32.96;100153.77;1821506;78;25685;-73
2021/07/25 10:27:16;;;;;;;9.20;8.05;;;;;;;33.66;32.86;100142.83;1821508;78;25703;-73
2021/07/25 10:29:43;;;;;;;10.35;8.58;;;;;;;34.00;33.42;100145.05;1821515;78;27995;-73
2021/07/25 10:32:11;;;;;;;8.93;8.03;;;;;;;34.33;33.48;100146.30;1784893;78;26468;-73
2021/07/25 10:34:39;;;;;;;10.00;8.28;;;;;;;34.54;32.41;100135.37;1821620;77;25645;-73
2021/07/25 10:37:06;;;;;;;11.50;9.30;;;;;;;34.84;32.69;100134.69;1821546;78;34930;-73
2021/07/25 10:39:36;;;;;;;10.13;7.95;;;;;;;35.16;33.09;100137.20;1785061;78;25658;-72
2021/07/25 10:42:04;;;;;;;10.30;8.35;;;;;;;35.77;31.70;100155.02;1821488;77;27601;-73
2021/07/25 10:44:32;;;;;;;8.90;8.10;;;;;;;35.77;31.70;100155.02;1821599;78;26387;-73
2021/07/25 10:47:26;;;;;;;9.23;8.33;;;;;;;35.74;30.58;100140.54;1821742;77;25695;-73
2021/07/25 10:50:21;;;;;;;8.73;7.75;;;;;;;35.71;30.95;100138.03;1821409;78;25675;-73
2021/07/25 10:52:57;;;;;;;8.75;7.65;;;;;;;35.65;30.24;100127.95;1821491;78;25711;-73
2021/07/25 10:55:41;;;;;;;9.53;7.70;;;;;;;35.57;30.11;100114.14;1821452;78;29618;-73
2021/07/25 10:58:15;;;;;;;10.08;7.50;;;;;;;35.73;30.52;100117.88;1821524;78;25652;-73
2021/07/25 11:00:50;;;;;;;10.13;7.53;;;;;;;35.97;30.42;100123.34;1821431;78;25675;-73
2021/07/25 11:03:35;;;;;;;11.48;7.58;;;;;;;36.16;30.03;100120.27;1813802;77;25732;-73
2021/07/25 11:06:15;;;;;;;8.63;7.33;;;;;;;36.32;28.75;100118.34;1809691;79;25684;-73
2021/07/25 11:08:52;;;;;;;9.65;8.03;;;;;;;36.14;28.73;100121.40;1807218;79;27317;-73
2021/07/25 11:11:36;;;;;;;8.55;7.60;;;;;;;36.05;29.04;100124.48;1809953;79;26096;-73
2021/07/25 11:14:04;;;;;;;9.18;8.28;;;;;;;35.84;28.28;100119.46;1809994;79;26278;-73
2021/07/25 11:16:42;;;;;;;9.20;7.47;;;;;;;35.79;29.00;100126.39;1809991;78;25982;-73
2021/07/25 11:19:20;;;;;;;8.93;7.33;;;;;;;35.96;29.13;100128.84;1810078;79;25614;-73
2021/07/25 11:21:55;;;;;;;12.50;7.87;;;;;;;35.90;28.73;100125.16;1810075;78;27333;-73
2021/07/25 11:24:27;;;;;;;11.95;7.55;;;;;;;36.17;28.08;100114.80;1804288;77;27115;-73
2021/07/25 11:27:02;;;;;;;8.05;7.35;;;;;;;36.08;28.30;100119.28;1809995;79;25689;-73
2021/07/25 11:29:39;;;;;;;8.68;7.30;;;;;;;35.78;28.25;100116.42;1809995;78;26353;-74
2021/07/25 11:32:23;;;;;;;;;;;;;;;35.75;28.84;100115.98;1812495;79;25673;-74
2021/07/25 11:35:07;;;;;;;10.20;6.97;;;;;;;35.78;28.37;100118.59;1777097;80;27322;-74
2021/07/25 11:37:42;;;;;;;10.48;7.30;;;;;;;35.61;28.98;100114.09;1784763;79;26405;-74
2021/07/25 11:40:11;;;;;;;9.00;7.75;;;;;;;35.64;28.26;100110.30;1784987;79;25648;-74
2021/07/25 11:42:37;;;;;;;;;;;;;;;35.21;28.75;100114.03;1765884;81;26066;-74
2021/07/25 11:45:06;;;;;;;8.30;7.20;;;;;;;35.25;28.78;100114.66;1777139;79;25693;-73
2021/07/25 11:47:33;;;;;;;9.83;6.92;;;;;;;35.26;28.27;100114.02;1784825;80;27327;-74
2021/07/25 11:50:00;;;;;;;8.10;7.30;;;;;;;35.32;28.50;100117.72;1737570;81;25714;-74
2021/07/25 11:52:31;;;;;;;9.50;7.00;;;;;;;35.13;28.12;100112.26;1777000;80;25851;-74
2021/07/25 11:54:57;;;;;;;7.67;6.97;;;;;;;34.82;28.02;100124.58;1783924;79;26437;-74
2021/07/25 11:57:27;;;;;;;9.88;7.65;;;;;;;34.61;28.23;100104.75;1777124;80;25772;-74
2021/07/25 12:00:03;;;;;;;62.55;58.78;;;;;;;34.40;28.59;100101.80;1785173;79;27361;-74
2021/07/25 12:02:38;;;;;;;29.12;26.82;;;;;;;34.19;28.88;100108.45;1763078;80;25720;-73
2021/07/25 12:05:04;;;;;;;7.28;6.58;;;;;;;33.85;29.12;100107.09;1776921;79;26491;-73
2021/07/25 12:07:34;;;;;;;11.25;7.80;;;;;;;33.94;29.31;100106.91;1785680;79;26372;-74
2021/07/25 12:10:03;;;;;;;8.48;7.40;;;;;;;33.94;28.67;100097.85;1810198;79;25692;-74
2021/07/25 12:12:36;;;;;;;8.18;7.30;;;;;;;33.55;28.99;100103.94;1820165;78;27322;-74
2021/07/25 12:15:01;;;;;;;7.97;7.17;;;;;;;33.24;29.36;100100.12;1820423;78;25688;-74
2021/07/25 12:17:44;;;;;;;10.25;7.33;;;;;;;33.11;29.95;100096.70;1821307;77;25735;-74
2021/07/25 12:20:33;;;;;;;8.10;7.30;;;;;;;32.95;29.86;100095.80;1821212;78;25990;-74
2021/07/25 12:23:08;;;;;;;11.83;7.28;;;;;;;32.74;30.18;100098.94;1821503;77;25715;-74
2021/07/25 12:25:40;;;;;;;8.45;7.03;;;;;;;32.53;30.17;100095.00;1821256;78;27364;-74
2021/07/25 12:28:17;;;;;;;12.13;7.40;;;;;;;32.32;30.31;100098.10;1818335;78;25653;-74
2021/07/25 12:30:50;;;;;;;7.83;6.87;;;;;;;32.12;30.92;100098.53;1821355;78;25728;-74
2021/07/25 12:33:25;;;;;;;10.43;7.17;;;;;;;32.04;31.02;100091.64;1821189;78;26429;-74
2021/07/25 12:35:52;;;;;;;8.43;7.53;;;;;;;32.22;31.16;100093.73;1821347;78;25637;-73
2021/07/25 12:38:20;;;;;;;7.92;7.10;;;;;;;32.39;29.92;100094.23;1784603;78;28096;-74
2021/07/25 12:40:59;;;;;;;8.08;7.25;;;;;;;32.24;30.10;100080.69;1785390;78;25746;-74
2021/07/25 12:43:27;;;;;;;9.65;7.72;;;;;;;32.18;30.24;100083.30;1821220;78;25731;-73
2021/07/25 12:45:57;;;;;;;9.38;7.40;;;;;;;32.06;30.58;100085.61;1821256;78;25658;-74
2021/07/25 12:48:29;;;;;;;13.70;7.85;;;;;;;31.94;30.66;100072.68;1819987;77;25802;-74
2021/07/25 12:53:59;;;;;;;8.25;7.42;;;;;;;31.90;30.83;100068.47;1821170;78;25692;-74
2021/07/25 12:56:33;;;;;;;8.35;6.70;;;;;;;31.90;31.21;100081.82;1820973;78;25761;-74
2021/07/25 12:59:09;;;;;;;13.78;7.42;;;;;;;31.70;31.01;100072.43;1821284;78;26369;-74
2021/07/25 13:04:06;;;;;;;8.38;7.35;;;;;;;31.41;31.80;100074.92;1821191;77;27868;-74
2021/07/25 13:06:41;;;;;;;9.58;7.70;;;;;;;31.43;31.81;100070.27;1821214;77;25715;-74
2021/07/25 13:09:17;;;;;;;66.05;62.00;;;;;;;31.43;32.02;100064.68;1821201;78;25715;-74
2021/07/25 13:11:53;;;;;;;67.85;63.90;;;;;;;31.43;32.29;100061.89;1821270;78;25700;-74
2021/07/25 13:14:28;;;;;;;8.08;7.28;;;;;;;31.47;32.25;100065.34;1821313;78;25879;-74
2021/07/25 13:16:57;;;;;;;10.35;7.30;;;;;;;31.44;32.27;100066.25;1821214;78;28514;-74
2021/07/25 13:19:27;;;;;;;7.87;7.10;;;;;;;31.37;32.06;100058.92;1821288;78;25637;-74
2021/07/25 13:21:54;;;;;;;7.75;7.05;;;;;;;31.34;32.85;100059.83;1821274;78;25671;-74
2021/07/25 13:24:21;;;;;;;10.78;7.05;;;;;;;31.36;32.18;100062.17;1784821;78;25764;-74
2021/07/25 13:26:48;;;;;;;11.40;7.12;;;;;;;31.29;32.08;100057.63;1821240;78;25672;-74
2021/07/25 13:29:15;;;;;;;8.90;7.35;;;;;;;31.30;32.30;100064.02;1821211;78;27312;-74
2021/07/25 13:31:41;;;;;;;10.50;7.45;;;;;;;31.29;32.34;100053.45;1821150;78;25676;-75
2021/07/25 13:34:08;;;;;;;7.97;6.90;;;;;;;31.20;31.99;100051.39;1821261;78;25715;-74
2021/07/25 13:36:35;;;;;;;53.63;50.38;;;;;;;31.07;32.13;100053.48;1821204;78;26279;-75
2021/07/25 13:39:01;;;;;;;65.30;61.60;;;;;;;31.08;32.20;100043.25;1821241;78;25763;-75
2021/07/25 13:41:28;;;;;;;62.83;59.10;;;;;;;31.13;31.81;100042.52;1784717;78;27424;-74
2021/07/25 13:43:59;;;;;;;63.48;59.88;;;;;;;31.34;32.16;100054.88;1821029;78;25641;-74
2021/07/25 13:46:24;;;;;;;64.17;60.43;;;;;;;31.57;31.82;100055.02;1820524;78;25755;-74
2021/07/25 13:48:51;;;;;;;63.52;59.88;;;;;;;31.72;30.85;100056.59;1821458;78;25696;-74
2021/07/25 13:51:20;;;;;;;64.53;60.67;;;;;;;31.81;31.03;100041.27;1821215;78;25695;-74
2021/07/25 13:53:48;;;;;;;64.67;60.48;;;;;;;31.89;31.25;100035.55;1784966;78;27318;-73
2021/07/25 13:56:16;;;;;;;64.43;60.73;;;;;;;31.98;31.11;100031.98;1821411;78;25735;-74
2021/07/25 13:58:44;;;;;;;66.25;62.10;;;;;;;32.12;31.02;100033.42;1821314;78;26455;-75
2021/07/25 14:01:12;;;;;;;66.12;62.15;;;;;;;32.26;30.80;100048.19;1821278;78;25702;-74
2021/07/25 14:03:39;;;;;;;64.72;60.92;;;;;;;32.38;30.45;100038.09;1810201;78;25737;-74
2021/07/25 14:06:06;;;;;;;65.22;61.63;;;;;;;32.34;30.19;100036.85;1792756;80;27920;-74
2021/07/25 14:08:32;;;;;;;63.80;59.90;;;;;;;32.20;30.50;100036.84;1792703;79;25674;-74
2021/07/25 14:10:58;;;;;;;64.70;61.02;;;;;;;32.26;30.24;100034.83;1792748;80;25681;-76
2021/07/25 14:13:25;;;;;;;8.05;6.50;;;;;;;32.31;29.91;100039.81;1792636;80;25868;-75
2021/07/25 14:15:51;;;;;;;9.70;6.60;;;;;;;32.24;29.11;100040.89;1792804;80;26337;-75
2021/07/25 14:18:18;;;;;;;9.20;6.30;;;;;;;32.14;29.53;100049.12;1792707;80;27306;-75
2021/07/25 14:20:44;;;;;;;8.63;7.03;;;;;;;32.05;29.63;100040.06;1792613;80;25744;-75
2021/07/25 14:23:11;;;;;;;8.65;6.90;;;;;;;32.00;29.87;100043.48;1792673;80;25698;-75
2021/07/25 14:25:45;;;;;;;63.38;59.88;;;;;;;31.94;29.84;100039.72;1792619;80;26427;-75
2021/07/25 14:28:12;;;;;;;65.00;61.20;;;;;;;31.74;29.96;100039.53;1792660;80;25913;-75
2021/07/25 14:30:40;;;;;;;64.20;60.60;;;;;;;31.63;30.12;100045.54;1792772;79;27243;-75
2021/07/25 14:33:09;;;;;;;67.15;63.35;;;;;;;31.63;30.11;100042.74;1800425;79;25664;-74
2021/07/25 14:35:36;;;;;;;65.85;62.13;;;;;;;31.70;30.62;100041.68;1793187;80;25706;-74
2021/07/25 14:38:04;;;;;;;63.13;59.45;;;;;;;31.74;30.93;100044.33;1793033;80;25732;-74
2021/07/25 14:40:31;;;;;;;62.67;59.18;;;;;;;31.85;30.95;100051.67;1793121;78;25630;-74
2021/07/25 14:42:58;;;;;;;65.45;61.77;;;;;;;31.81;30.68;100046.23;1792973;80;28022;-74
2021/07/25 14:45:24;;;;;;;65.25;60.20;;;;;;;31.74;30.64;100044.33;1792893;80;25683;-75
2021/07/25 14:47:50;;;;;;;63.87;60.10;;;;;;;31.70;30.71;100040.91;1793078;78;26385;-75
2021/07/25 14:50:17;;;;;;;65.30;61.58;;;;;;;31.76;30.64;100046.06;1793054;80;25698;-75
2021/07/25 14:52:44;;;;;;;64.75;60.67;;;;;;;31.69;30.70;100049.12;1793067;80;26412;-75
2021/07/25 14:55:11;;;;;;;67.32;63.10;;;;;;;31.70;30.80;100046.50;1792988;78;27262;-75
2021/07/25 14:57:38;;;;;;;64.50;60.80;;;;;;;31.76;31.20;100042.64;1792904;78;25639;-75
2021/07/25 15:00:09;;;;;;;62.33;58.55;;;;;;;31.91;30.62;100041.44;1792931;80;25717;-75
2021/07/25 15:02:36;;;;;;;63.63;59.70;;;;;;;31.95;30.19;100037.86;1793102;80;25748;-76
2021/07/25 15:05:05;;;;;;;61.40;57.90;;;;;;;32.05;30.03;100035.10;1793494;78;26341;-75
2021/07/25 15:07:32;;;;;;;64.25;60.52;;;;;;;32.12;29.85;100039.02;1793100;80;27303;-75
2021/07/25 15:09:59;;;;;;;64.80;61.13;;;;;;;32.13;29.47;100032.96;1792854;80;25707;-75
2021/07/25 15:12:26;;;;;;;61.75;58.17;;;;;;;32.23;30.08;100032.33;1768494;80;25757;-75
2021/07/25 15:14:53;;;;;;;63.87;59.85;;;;;;;32.22;28.98;100027.22;1793055;80;25942;-75
2021/07/25 15:17:21;;;;;;;62.78;59.08;;;;;;;32.16;29.50;100029.23;1793006;79;26260;-75
2021/07/25 15:19:48;;;;;;;61.92;58.52;;;;;;;32.14;28.89;100048.48;1793015;80;27311;-75
2021/07/25 15:22:15;;;;;;;63.70;59.75;;;;;;;31.98;29.31;100036.95;1793112;80;25756;-75
2021/07/25 15:24:42;;;;;;;61.68;58.23;;;;;;;31.91;29.25;100044.23;1792972;80;25727;-75
2021/07/25 15:27:09;;;;;;;21.70;20.00;;;;;;;31.68;29.25;100036.41;1793071;80;25660;-75
2021/07/25 15:29:39;;;;;;;11.20;6.40;;;;;;;31.57;29.62;100046.63;1793132;79;25737;-74
2021/07/25 15:32:08;;;;;;;8.43;6.30;;;;;;;31.46;29.69;100042.19;1768561;80;27375;-73
2021/07/25 15:34:36;;;;;;;7.53;6.72;;;;;;;31.35;29.96;100039.67;1793098;80;25694;-74
2021/07/25 15:37:04;;;;;;;8.43;6.77;;;;;;;31.19;30.08;100036.48;1793423;79;25693;-74
2021/07/25 15:39:32;;;;;;;12.90;11.60;;;;;;;31.06;30.22;100042.16;1793261;80;26111;-75
2021/07/25 15:41:59;;;;;;;8.63;6.20;;;;;;;30.97;30.56;100043.49;1793218;80;25994;-75
2021/07/25 15:44:26;;;;;;;10.18;6.47;;;;;;;30.88;30.66;100038.60;1793418;80;27309;-75
2021/07/25 15:46:54;;;;;;;9.38;6.35;;;;;;;30.76;30.79;100043.02;1793072;80;25771;-74
2021/07/25 15:49:21;;;;;;;7.17;6.15;;;;;;;30.66;31.02;100039.38;1768677;80;25686;-74
2021/07/25 15:51:48;;;;;;;8.18;5.80;;;;;;;30.58;31.25;100037.30;1793116;79;25685;-74
2021/07/25 15:54:15;;;;;;;6.95;6.28;;;;;;;30.47;31.40;100037.06;1793199;80;25650;-74
2021/07/25 15:56:44;;;;;;;10.55;6.72;;;;;;;30.39;31.40;100033.59;1793255;80;27321;-73
2021/07/25 15:59:11;;;;;;;7.22;6.50;;;;;;;30.31;31.65;100030.25;1793027;80;27170;-74
2021/07/25 16:01:38;;;;;;;8.55;6.58;;;;;;;30.21;31.84;100034.19;1793155;80;25863;-74
2021/07/25 16:04:05;;;;;;;7.53;6.42;;;;;;;30.09;31.91;100033.77;1793097;80;25693;-74
2021/07/25 16:06:32;;;;;;;9.68;7.28;;;;;;;30.05;32.37;100040.05;1793178;78;25721;-74
2021/07/25 16:08:58;;;;;;;10.20;7.03;;;;;;;30.01;32.46;100037.24;1793110;80;27314;-74
2021/07/25 16:11:31;;;;;;;8.33;6.47;;;;;;;29.97;32.79;100041.55;1793059;80;25741;-75
2021/07/25 16:13:56;;;;;;;7.72;6.97;;;;;;;29.95;33.00;100038.41;1791760;79;25701;-75
2021/07/25 16:16:24;;;;;;;15.58;12.85;;;;;;;29.94;33.48;100039.03;1793135;80;26036;-75
2021/07/25 16:18:53;;;;;;;11.22;8.35;;;;;;;29.93;33.61;100039.48;1793167;80;25625;-75
2021/07/25 16:21:24;;;;;;;9.13;7.10;;;;;;;29.91;34.11;100046.89;1793155;80;28069;-75
2021/07/25 16:23:52;;;;;;;7.78;6.60;;;;;;;29.90;34.43;100043.95;1793089;79;26353;-75
2021/07/25 16:26:19;;;;;;;7.37;6.67;;;;;;;29.87;34.72;100051.81;1793402;80;25689;-75
2021/07/25 16:28:48;;;;;;;13.00;8.03;;;;;;;29.82;34.64;100054.39;1793059;80;25705;-67
2021/07/25 16:31:16;;;;;;;;;;;;;;;29.74;34.87;100057.36;1795909;79;25646;-67
2021/07/25 16:33:45;;;;;;;7.78;6.97;;;;;;;29.62;35.03;100053.97;1793302;80;27348;-67
2021/07/25 16:36:17;;;;;;;10.50;7.28;;;;;;;29.46;34.73;100056.27;1793226;78;25652;-67
2021/07/25 16:38:43;;;;;;;10.35;6.65;;;;;;;29.31;34.82;100055.14;1791828;79;25682;-67
2021/07/25 16:41:14;;;;;;;9.73;7.60;;;;;;;29.21;34.90;100057.01;1793065;79;25741;-67
2021/07/25 16:43:42;;;;;;;67.00;62.55;;;;;;;29.17;35.07;100056.34;1768319;80;25756;-67
2021/07/25 16:46:10;;;;;;;66.37;62.50;;;;;;;29.11;35.42;100046.94;1794658;79;28081;-67
2021/07/25 16:48:37;;;;;;;65.22;61.42;;;;;;;29.11;35.80;100048.33;1793064;80;25696;-67
2021/07/25 16:51:06;;;;;;;68.07;63.65;;;;;;;29.11;35.73;100055.30;1793164;80;25758;-67
2021/07/25 16:53:32;;;;;;;66.87;62.83;;;;;;;29.09;36.50;100054.96;1793377;80;34886;-67
2021/07/25 16:56:00;;;;;;;69.15;64.90;;;;;;;29.02;36.11;100054.55;1793148;78;25715;-67
2021/07/25 16:58:26;;;;;;;68.62;64.72;;;;;;;28.94;35.99;100058.14;1768437;80;27828;-67
2021/07/25 17:00:53;;;;;;;70.87;66.10;;;;;;;28.87;36.13;100056.34;1792955;80;25657;-66
2021/07/25 17:03:23;;;;;;;16.23;14.73;;;;;;;28.79;36.46;100052.22;1793212;80;25651;-65
2021/07/25 17:05:50;;;;;;;12.25;8.30;;;;;;;28.78;36.49;100055.44;1802645;77;25784;-67
2021/07/25 17:08:16;;;;;;;13.58;8.70;;;;;;;28.76;36.93;100055.07;1810076;79;25776;-65
2021/07/25 17:10:42;;;;;;;8.58;7.60;;;;;;;28.70;37.01;100060.41;1810032;79;27509;-65
2021/07/25 17:13:09;;;;;;;8.75;7.47;;;;;;;28.65;37.32;100061.72;1809900;79;25687;-67
2021/07/25 17:15:42;;;;;;;12.78;9.20;;;;;;;28.61;37.28;100058.88;1810054;79;25707;-65
2021/07/25 17:18:10;;;;;;;8.93;7.53;;;;;;;28.55;38.16;100058.61;1810060;79;25699;-65
2021/07/25 17:20:37;;;;;;;9.78;7.10;;;;;;;28.50;38.20;100060.50;1810123;78;25777;-65
2021/07/25 17:23:05;;;;;;;12.07;7.95;;;;;;;28.44;38.35;100060.88;1809568;79;27316;-65
2021/07/25 17:25:32;;;;;;;14.75;7.60;;;;;;;28.37;38.71;100056.91;1809918;79;25586;-67
2021/07/25 17:28:00;;;;;;;12.43;7.65;;;;;;;28.30;38.95;100061.42;1810168;78;26097;-66
2021/07/25 17:30:27;;;;;;;14.75;8.30;;;;;;;28.25;38.88;100061.95;1810074;79;25690;-66
2021/07/25 17:32:54;;;;;;;18.40;8.45;;;;;;;28.15;39.11;100063.00;1810001;79;25743;-66